createdAt,value
2022-08-04T00:03:43.130Z,28.6
2022-08-04T00:09:01.893Z,28.7
2022-08-04T00:14:20.099Z,28.7
2022-08-04T00:19:38.585Z,28.7
2022-08-04T00:24:56.778Z,28.7
2022-08-04T00:30:15.258Z,28.7
2022-08-04T00:35:33.462Z,28.7
2022-08-04T00:40:51.955Z,28.7
2022-08-04T00:46:18.001Z,28.7
2022-08-04T00:51:36.699Z,28.7
2022-08-04T00:56:55.183Z,28.7
2022-08-04T01:02:13.670Z,28.7
2022-08-04T01:07:32.431Z,28.7
2022-08-04T01:12:50.928Z,28.7
2022-08-04T01:18:09.120Z,28.7
2022-08-04T01:23:27.326Z,28.7
2022-08-04T01:28:45.524Z,28.7
2022-08-04T01:34:07.278Z,28.7
2022-08-04T01:39:25.931Z,28.7
2022-08-04T01:44:45.585Z,28.7
2022-08-04T01:50:04.071Z,28.7
2022-08-04T01:55:22.842Z,28.7
2022-08-04T02:00:40.769Z,28.7
2022-08-04T02:06:04.394Z,28.7
2022-08-04T02:11:22.931Z,28.7
2022-08-04T02:16:40.839Z,28.6
2022-08-04T02:21:59.594Z,28.6
2022-08-04T02:27:17.809Z,28.6
2022-08-04T02:32:36.303Z,28.6
2022-08-04T02:37:54.824Z,28.6
2022-08-04T02:43:13.299Z,28.6
2022-08-04T02:48:31.946Z,28.6
2022-08-04T02:53:50.158Z,28.6
2022-08-04T02:59:08.924Z,28.6
2022-08-04T03:04:27.405Z,28.6
2022-08-04T03:09:45.890Z,28.6
2022-08-04T03:15:04.640Z,28.6
2022-08-04T03:20:23.141Z,28.6
2022-08-04T03:25:57.780Z,28.6
2022-08-04T03:31:16.011Z,28.6
2022-08-04T03:36:34.786Z,28.5
2022-08-04T03:42:05.000Z,28.6
2022-08-04T03:47:26.187Z,28.6
2022-08-04T03:52:47.539Z,28.6
2022-08-04T03:58:06.028Z,28.6
2022-08-04T04:03:29.370Z,28.6
2022-08-04T04:08:49.892Z,28.6
2022-08-04T04:14:09.747Z,28.6
2022-08-04T04:19:28.240Z,28.6
2022-08-04T04:24:34.150Z,28.6
2022-08-04T04:29:53.416Z,28.6
2022-08-04T04:35:12.177Z,28.6
2022-08-04T04:40:30.657Z,28.5
2022-08-04T04:45:48.869Z,28
2022-08-04T04:51:07.064Z,27.9
2022-08-04T04:56:25.546Z,27.6
2022-08-04T05:01:44.311Z,27.5
2022-08-04T05:07:03.061Z,27.6
2022-08-04T05:14:40.844Z,27.8
2022-08-04T05:20:01.204Z,27.9
2022-08-04T05:25:19.160Z,27.9
2022-08-04T05:30:38.247Z,28
2022-08-04T05:36:39.743Z,28
2022-08-04T05:42:05.121Z,28.1
2022-08-04T05:47:25.528Z,28.1
2022-08-04T05:52:44.025Z,28.2
2022-08-04T05:58:02.772Z,28.2
2022-08-04T06:03:21.528Z,28.2
2022-08-04T06:08:40.259Z,28.2
2022-08-04T06:13:58.317Z,28.2
2022-08-04T06:20:17.566Z,28.1
2022-08-04T06:25:40.745Z,28.2
2022-08-04T06:32:34.528Z,28.2
2022-08-04T06:38:02.061Z,28.3
2022-08-04T06:43:20.810Z,28.3
2022-08-04T06:48:40.531Z,28.3
2022-08-04T06:53:59.001Z,28.3
2022-08-04T06:59:17.686Z,28.3
2022-08-04T07:04:35.606Z,28.4
2022-08-04T07:09:54.374Z,28.4
2022-08-04T07:15:14.895Z,28.5
2022-08-04T07:20:37.049Z,28.5
2022-08-04T07:26:13.339Z,28.5
2022-08-04T07:31:36.285Z,28.5
2022-08-04T07:36:56.244Z,28.5
2022-08-04T07:42:14.443Z,28.5
2022-08-04T07:47:32.680Z,28.5
2022-08-04T07:53:53.792Z,28.5
2022-08-04T07:59:14.677Z,28.5
2022-08-04T08:04:33.158Z,28.5
2022-08-04T08:09:51.636Z,28.5
2022-08-04T08:15:10.803Z,28.6
2022-08-04T08:20:33.917Z,28.6
2022-08-04T08:25:52.405Z,28.6
2022-08-04T08:31:10.886Z,28.6
2022-08-04T08:36:29.366Z,28.6
2022-08-04T08:41:52.281Z,28.6
2022-08-04T08:47:11.039Z,28.6
2022-08-04T08:53:03.138Z,28.6
2022-08-04T08:58:21.785Z,28.6
2022-08-04T09:03:40.550Z,28.6
2022-08-04T09:08:59.034Z,28.6
2022-08-04T09:14:17.517Z,28.6
2022-08-04T09:19:39.647Z,28.7
2022-08-04T09:24:58.496Z,28.7
2022-08-04T09:30:17.087Z,28.7
2022-08-04T09:35:35.859Z,28.7
2022-08-04T09:40:58.089Z,28.7
2022-08-04T09:46:17.237Z,28.7
2022-08-04T09:51:59.488Z,28.7
2022-08-04T09:57:18.160Z,28.7
2022-08-04T10:02:36.789Z,28.7
2022-08-04T10:08:17.159Z,28.7
2022-08-04T10:13:35.800Z,28.8
2022-08-04T10:18:54.284Z,28.7
2022-08-04T10:24:13.063Z,28.8
2022-08-04T10:29:31.525Z,28.8
2022-08-04T10:34:50.285Z,28.8
2022-08-04T10:40:09.276Z,28.8
2022-08-04T10:45:27.907Z,28.8
2022-08-04T10:50:46.096Z,28.8
2022-08-04T10:56:09.152Z,28.8
2022-08-04T11:02:03.693Z,28.9
2022-08-04T11:07:22.367Z,28.9
2022-08-04T11:12:40.810Z,28.9
2022-08-04T11:17:59.298Z,28.8
2022-08-04T11:23:17.520Z,28.9
2022-08-04T11:28:35.985Z,28.9
2022-08-04T11:33:54.192Z,28.9
2022-08-04T11:39:12.705Z,28.9
2022-08-04T11:44:30.985Z,28.9
2022-08-04T11:49:58.404Z,28.9
2022-08-04T11:55:16.972Z,28.9
2022-08-04T12:00:35.164Z,28.9
2022-08-04T12:05:53.651Z,28.9
2022-08-04T12:11:12.131Z,28.9
2022-08-04T12:16:31.908Z,28.9
2022-08-04T12:21:57.334Z,28.9
2022-08-04T12:27:15.805Z,28.9
2022-08-04T12:32:34.289Z,28.9
2022-08-04T12:37:58.583Z,28.9
2022-08-04T12:43:17.068Z,28.9
2022-08-04T12:48:36.324Z,28.9
2022-08-04T12:53:54.839Z,29
2022-08-04T12:59:13.768Z,29
2022-08-04T13:04:32.256Z,29
2022-08-04T13:09:54.486Z,28.9
2022-08-04T13:15:18.812Z,29
2022-08-04T13:20:37.297Z,29
2022-08-04T13:26:55.032Z,29
2022-08-04T13:32:14.411Z,29
2022-08-04T13:37:32.900Z,29
2022-08-04T13:42:51.654Z,29
2022-08-04T13:48:33.021Z,29
2022-08-04T13:53:51.225Z,29
2022-08-04T13:59:13.667Z,29
2022-08-04T14:04:31.865Z,29
2022-08-04T14:10:04.372Z,29.1
2022-08-04T14:15:23.027Z,29.1
2022-08-04T14:20:40.961Z,29.1
2022-08-04T14:25:59.712Z,29.1
2022-08-04T14:31:18.202Z,29.1
2022-08-04T14:37:13.990Z,29.1
2022-08-04T14:42:38.034Z,29.1
2022-08-04T14:47:56.787Z,29.1
2022-08-04T14:53:17.641Z,29.1
2022-08-04T14:58:39.991Z,29.1
2022-08-04T15:03:58.760Z,29.1
2022-08-04T15:09:17.523Z,29.1
2022-08-04T15:14:38.432Z,29.1
2022-08-04T15:19:57.220Z,29.1
2022-08-04T15:25:15.915Z,29.1
2022-08-04T15:30:34.443Z,29.1
2022-08-04T15:35:52.641Z,29.2
2022-08-04T15:40:55.505Z,29.2
2022-08-04T15:46:44.955Z,29.2
2022-08-04T15:52:12.769Z,29.2
2022-08-04T15:57:30.688Z,29.2
2022-08-04T16:02:49.303Z,29.2
2022-08-04T16:08:07.703Z,29.2
2022-08-04T16:13:26.457Z,29.2
2022-08-04T16:18:44.943Z,29.2
2022-08-04T16:24:07.174Z,29.2
2022-08-04T16:29:25.366Z,29.2
2022-08-04T16:34:54.857Z,29.2
2022-08-04T16:40:14.669Z,29.2
2022-08-04T16:45:34.116Z,29.2
2022-08-04T16:50:54.222Z,29.2
2022-08-04T16:56:12.979Z,29.1
2022-08-04T17:01:34.461Z,29.1
2022-08-04T17:06:52.909Z,29.1
2022-08-04T17:12:11.380Z,29.1
2022-08-04T17:18:06.772Z,29.1
2022-08-04T17:24:17.668Z,29.1
2022-08-04T17:29:45.249Z,29.1
2022-08-04T17:35:04.588Z,29.1
2022-08-04T17:40:26.820Z,29.1
2022-08-04T17:45:56.792Z,29.1
2022-08-04T17:51:17.608Z,29.1
2022-08-04T17:56:36.485Z,29.1
2022-08-04T18:02:11.256Z,29.1
2022-08-04T22:30:37.432Z,29
2022-08-04T22:35:58.068Z,29
2022-08-04T22:41:18.991Z,29
2022-08-04T22:46:40.647Z,29
2022-08-04T22:51:59.203Z,29
2022-08-04T22:57:43.829Z,29
2022-08-04T23:03:38.509Z,29
2022-08-04T23:08:57.312Z,29
2022-08-04T23:14:15.793Z,29
2022-08-04T23:19:34.619Z,29
2022-08-04T23:24:53.841Z,28.9
2022-08-04T23:30:13.805Z,29
2022-08-04T23:35:33.054Z,29
2022-08-04T23:40:53.162Z,29
2022-08-04T23:46:11.437Z,29
2022-08-04T23:51:30.844Z,29
2022-08-04T23:56:54.933Z,29
